Time;durP1;ratioP1;P1;durP2;ratioP2;P2;SDS_P1;SDS_P2;PMS_P1;PMS_P2;Temp;Humidity;BMP_temperature;BMP_pressure;BME280_temperature;BME280_humidity;BME280_pressure;Samples;Min_cycle;Max_cycle;Signal;HPM_P1;HPM_P2
2024/01/04 00:03:30;;;;;;;4.30;1.42;;;4.90;99.90;;;;;;21071940;28;20036;-60
2024/01/04 00:13:32;;;;;;;4.38;1.00;;;4.90;99.90;;;;;;21070203;28;20028;-59
2024/01/04 00:23:35;;;;;;;4.00;1.10;;;4.80;99.90;;;;;;21068585;28;20040;-57
2024/01/04 00:33:36;;;;;;;7.90;1.30;;;4.50;99.90;;;;;;21049254;28;20040;-58
2024/01/04 00:43:38;;;;;;;7.28;1.33;;;4.40;99.90;;;;;;21050618;28;20035;-58
2024/01/04 00:53:41;;;;;;;5.10;1.33;;;4.10;99.90;;;;;;21068483;28;20474;-56
2024/01/04 01:03:43;;;;;;;5.90;1.23;;;3.20;99.90;;;;;;21050428;28;20032;-58
2024/01/04 01:13:45;;;;;;;6.25;1.17;;;2.70;99.90;;;;;;21066903;28;20062;-57
2024/01/04 01:23:47;;;;;;;3.58;1.20;;;2.20;99.90;;;;;;21066208;28;20048;-59
2024/01/04 01:33:49;;;;;;;10.43;1.77;;;2.20;99.90;;;;;;21048853;28;20032;-59
2024/01/04 01:43:50;;;;;;;5.97;1.40;;;2.10;99.90;;;;;;21066055;28;20032;-59
2024/01/04 01:53:52;;;;;;;4.68;1.30;;;1.60;99.90;;;;;;21065663;28;20535;-59
2024/01/04 02:03:55;;;;;;;5.57;0.98;;;1.30;99.90;;;;;;21065269;28;20036;-59
2024/01/04 02:13:56;;;;;;;3.28;1.02;;;1.20;99.90;;;;;;21064618;28;20085;-57
2024/01/04 02:23:58;;;;;;;3.08;1.15;;;1.00;99.90;;;;;;21046217;28;20109;-56
2024/01/04 02:34:00;;;;;;;3.40;1.40;;;0.80;99.90;;;;;;21053353;28;20044;-57
2024/01/04 02:44:02;;;;;;;2.22;0.93;;;0.60;99.90;;;;;;21059593;28;20040;-56
2024/01/04 02:54:04;;;;;;;2.90;1.00;;;0.50;99.90;;;;;;21073011;28;20096;-57
2024/01/04 03:04:05;;;;;;;5.65;1.00;;;0.40;99.90;;;;;;21058377;28;20028;-49
2024/01/04 03:14:07;;;;;;;6.72;1.33;;;0.30;99.90;;;;;;21075350;28;20035;-56
2024/01/04 03:24:09;;;;;;;3.67;0.70;;;0.20;99.90;;;;;;21074452;28;20114;-59
2024/01/04 03:34:10;;;;;;;2.97;1.10;;;0.40;99.90;;;;;;21074746;28;20092;-59
2024/01/04 03:44:15;;;;;;;4.40;1.40;;;0.30;99.90;;;;;;21072191;28;20032;-59
2024/01/04 03:54:17;;;;;;;3.00;1.08;;;0.20;99.90;;;;;;21072732;28;20035;-58
2024/01/04 04:04:19;;;;;;;1.30;0.55;;;0.60;99.90;;;;;;21069947;28;20024;-58
2024/01/04 04:14:21;;;;;;;5.43;2.00;;;1.20;99.90;;;;;;21069505;28;20035;-55
2024/01/04 04:24:24;;;;;;;3.97;1.90;;;1.00;99.90;;;;;;21069307;28;20052;-58
2024/01/04 04:34:26;;;;;;;5.60;1.00;;;0.80;99.90;;;;;;21070373;28;20101;-59
2024/01/04 04:44:27;;;;;;;2.03;0.40;;;0.80;99.90;;;;;;21069032;28;20141;-58
2024/01/04 04:54:29;;;;;;;0.88;0.30;;;1.10;99.90;;;;;;21067210;28;20051;-59
2024/01/04 05:04:31;;;;;;;3.42;1.90;;;1.00;99.90;;;;;;21066527;28;20032;-59
2024/01/04 05:14:35;;;;;;;1.55;0.40;;;0.50;99.90;;;;;;21065174;28;20032;-58
2024/01/04 05:24:37;;;;;;;1.27;0.40;;;0.40;99.90;;;;;;21066352;28;20086;-58
2024/01/04 05:34:39;;;;;;;0.82;0.40;;;0.70;99.90;;;;;;21062076;28;20032;-59
2024/01/04 05:44:41;;;;;;;2.05;0.43;;;0.60;99.90;;;;;;21065717;28;20032;-59
2024/01/04 05:54:42;;;;;;;1.02;0.20;;;0.80;99.90;;;;;;21031054;28;20032;-58
2024/01/04 06:04:47;;;;;;;0.82;0.20;;;1.00;99.90;;;;;;21068431;28;20097;-59
2024/01/04 06:14:51;;;;;;;0.40;0.10;;;1.00;99.90;;;;;;21012397;28;20028;-59
2024/01/04 06:24:52;;;;;;;0.77;0.10;;;0.90;99.90;;;;;;21075566;28;20032;-59
2024/01/04 06:34:54;;;;;;;0.30;0.00;;;0.60;99.90;;;;;;21074780;28;20039;-59
2024/01/04 06:44:56;;;;;;;2.05;0.20;;;1.10;99.90;;;;;;21073383;28;20062;-59
2024/01/04 06:54:58;;;;;;;0.00;0.00;;;0.70;99.90;;;;;;21052445;28;20035;-59
2024/01/04 07:05:00;;;;;;;0.40;0.00;;;0.60;99.90;;;;;;21072057;28;20089;-59
2024/01/04 07:15:04;;;;;;;0.45;0.10;;;0.80;99.90;;;;;;21052523;28;20029;-58
2024/01/04 07:25:07;;;;;;;0.30;0.00;;;1.30;99.90;;;;;;21070904;28;20036;-59
2024/01/04 07:35:12;;;;;;;0.10;0.00;;;1.40;99.90;;;;;;21070403;28;20040;-58
2024/01/04 07:45:14;;;;;;;0.00;0.00;;;2.20;99.90;;;;;;21064479;28;20036;-59
2024/01/04 07:55:16;;;;;;;1.35;0.00;;;2.70;99.90;;;;;;21049791;28;20032;-60
2024/01/04 08:05:18;;;;;;;0.28;0.00;;;4.00;99.90;;;;;;21067551;28;20036;-60
2024/01/04 08:15:20;;;;;;;0.25;0.00;;;5.30;98.10;;;;;;21066245;28;20062;-60
2024/01/04 08:25:22;;;;;;;0.08;0.00;;;5.50;97.00;;;;;;21064851;28;20036;-60
2024/01/04 08:35:26;;;;;;;1.52;0.10;;;6.10;99.30;;;;;;21043587;28;20432;-59
2024/01/04 08:45:28;;;;;;;0.00;0.00;;;6.80;97.60;;;;;;21063205;28;20555;-61
2024/01/04 08:55:30;;;;;;;1.00;0.10;;;7.10;95.70;;;;;;21063216;28;20038;-45
2024/01/04 09:05:33;;;;;;;0.15;0.10;;;7.50;93.80;;;;;;21062072;28;20020;-61
2024/01/04 09:15:35;;;;;;;0.00;0.00;;;8.10;92.30;;;;;;21061914;28;20052;-50
2024/01/04 09:25:37;;;;;;;0.20;0.00;;;8.70;90.30;;;;;;21061672;28;20033;-60
2024/01/04 09:35:38;;;;;;;0.00;0.00;;;9.10;89.50;;;;;;21062071;28;20478;-62
2024/01/04 09:45:43;;;;;;;0.15;0.00;;;9.50;86.60;;;;;;21072979;28;20117;-62
2024/01/04 09:55:44;;;;;;;0.08;0.00;;;9.90;89.20;;;;;;21077048;28;20062;-62
2024/01/04 10:05:48;;;;;;;0.10;0.00;;;10.40;86.80;;;;;;21061104;28;20101;-62
2024/01/04 10:15:51;;;;;;;0.68;0.25;;;10.70;82.20;;;;;;21075785;28;20047;-49
2024/01/04 10:26:04;;;;;;;1.17;0.20;;;11.10;86.90;;;;;;21074874;28;20089;-47
2024/01/04 10:36:10;;;;;;;1.05;0.50;;;11.10;84.40;;;;;;21075285;28;20438;-52
2024/01/04 10:46:13;;;;;;;2.78;1.40;;;11.10;86.60;;;;;;21055004;28;20028;-59
2024/01/04 10:56:15;;;;;;;2.53;1.33;;;11.10;90.50;;;;;;21072190;28;20058;-48
2024/01/04 11:06:18;;;;;;;1.17;0.40;;;10.90;90.90;;;;;;21072278;28;20028;-47
2024/01/04 11:16:32;;;;;;;3.83;1.30;;;10.90;86.80;;;;;;21053242;28;20496;-49
2024/01/04 11:26:50;;;;;;;1.27;0.60;;;11.20;90.40;;;;;;21070276;28;20047;-48
2024/01/04 11:37:25;;;;;;;0.88;0.35;;;11.30;89.60;;;;;;21068246;28;20097;-47
2024/01/04 11:47:27;;;;;;;1.33;0.22;;;11.40;85.20;;;;;;21050347;28;20101;-59
2024/01/04 11:57:30;;;;;;;1.50;0.50;;;11.40;86.40;;;;;;21068811;28;20085;-49
2024/01/04 12:07:36;;;;;;;0.75;0.28;;;11.60;86.90;;;;;;21066791;28;20031;-49
2024/01/04 12:17:38;;;;;;;0.15;0.08;;;11.80;83.60;;;;;;21049035;28;20560;-61
2024/01/04 12:27:40;;;;;;;0.28;0.20;;;11.50;80.50;;;;;;21065672;28;20097;-48
2024/01/04 12:37:42;;;;;;;0.68;0.15;;;11.10;78.30;;;;;;21064844;28;20035;-50
2024/01/04 12:47:44;;;;;;;0.75;0.10;;;11.00;77.10;;;;;;21064753;28;20036;-60
2024/01/04 12:57:46;;;;;;;0.40;0.10;;;11.10;76.20;;;;;;21063728;28;20032;-61
2024/01/04 13:07:48;;;;;;;0.20;0.10;;;10.90;77.30;;;;;;21062903;28;20036;-47
2024/01/04 13:17:50;;;;;;;0.22;0.05;;;11.00;76.90;;;;;;21062098;28;20044;-60
2024/01/04 13:27:52;;;;;;;0.65;0.10;;;10.40;75.80;;;;;;21061268;28;20028;-59
2024/01/04 13:37:54;;;;;;;0.17;0.10;;;9.70;79.20;;;;;;21061098;28;20035;-58
2024/01/04 13:47:56;;;;;;;0.10;0.00;;;9.30;77.90;;;;;;21060829;28;20032;-52
2024/01/04 13:57:58;;;;;;;0.20;0.10;;;8.70;76.20;;;;;;21059054;28;20040;-50
2024/01/04 14:07:59;;;;;;;0.20;0.10;;;8.50;78.30;;;;;;21060642;28;20094;-60
2024/01/04 14:18:02;;;;;;;0.30;0.00;;;8.30;76.50;;;;;;21058542;28;20048;-58
2024/01/04 14:28:03;;;;;;;0.35;0.10;;;8.20;75.40;;;;;;21065721;28;20065;-59
2024/01/04 14:38:05;;;;;;;0.10;0.00;;;8.10;78.20;;;;;;21073545;28;20104;-59
2024/01/04 14:48:07;;;;;;;0.20;0.10;;;7.60;80.60;;;;;;21074443;28;20028;-59
2024/01/04 14:58:09;;;;;;;0.10;0.00;;;7.60;79.10;;;;;;21069618;28;20070;-58
2024/01/04 15:08:11;;;;;;;0.20;0.00;;;7.30;78.80;;;;;;21070742;28;20032;-58
2024/01/04 15:18:13;;;;;;;0.10;0.00;;;6.70;79.00;;;;;;21069092;28;20055;-58
2024/01/04 15:28:15;;;;;;;0.10;0.00;;;6.20;81.10;;;;;;21069453;28;20535;-58
2024/01/04 15:38:17;;;;;;;0.65;0.00;;;6.40;79.60;;;;;;21070562;28;20035;-55
2024/01/04 15:48:22;;;;;;;1.05;0.03;;;5.30;86.80;;;;;;21069529;28;20535;-56
2024/01/04 15:58:23;;;;;;;0.63;0.10;;;4.90;84.50;;;;;;21067766;28;20039;-57
2024/01/04 16:08:26;;;;;;;0.32;0.00;;;4.50;87.20;;;;;;21067876;28;20031;-58
2024/01/04 16:18:28;;;;;;;0.25;0.15;;;4.50;83.70;;;;;;21067413;28;20059;-58
2024/01/04 16:28:30;;;;;;;0.17;0.10;;;5.00;81.40;;;;;;21070183;28;20047;-58
2024/01/04 16:38:33;;;;;;;0.35;0.10;;;4.70;79.90;;;;;;21067422;28;20043;-58
2024/01/04 16:48:39;;;;;;;0.00;0.00;;;4.50;85.20;;;;;;21068581;28;20040;-50
2024/01/04 16:58:44;;;;;;;0.03;0.00;;;4.90;76.90;;;;;;21033109;28;20036;-58
2024/01/04 17:08:49;;;;;;;0.10;0.00;;;4.90;77.40;;;;;;21050828;28;20497;-55
2024/01/04 17:18:50;;;;;;;0.17;0.10;;;4.00;80.20;;;;;;21067024;28;20051;-58
2024/01/04 17:28:53;;;;;;;0.10;0.10;;;5.10;75.10;;;;;;21065665;28;20028;-57
2024/01/04 17:38:54;;;;;;;1.80;0.10;;;4.90;82.50;;;;;;21062007;28;20036;-58
2024/01/04 17:48:58;;;;;;;0.00;0.00;;;4.00;82.10;;;;;;21036250;28;20037;-57
2024/01/04 17:58:59;;;;;;;0.30;0.10;;;3.30;85.80;;;;;;21055946;28;20640;-57
2024/01/04 18:09:02;;;;;;;0.00;0.00;;;3.50;86.40;;;;;;21080701;28;20113;-56
2024/01/04 18:19:04;;;;;;;0.03;0.00;;;3.50;85.00;;;;;;21076994;28;20102;-56
2024/01/04 18:29:06;;;;;;;0.00;0.00;;;3.30;86.40;;;;;;21080018;28;20081;-57
2024/01/04 18:39:09;;;;;;;0.00;0.00;;;3.80;79.60;;;;;;21079087;28;20477;-58
2024/01/04 18:49:11;;;;;;;0.00;0.00;;;5.50;76.50;;;;;;21078920;28;20043;-58
2024/01/04 18:59:17;;;;;;;0.77;0.40;;;5.70;71.60;;;;;;21077213;28;20035;-58
2024/01/04 19:09:19;;;;;;;1.98;0.50;;;6.00;75.20;;;;;;21076872;28;20032;-56
2024/01/04 19:19:20;;;;;;;0.30;0.17;;;4.50;82.00;;;;;;21075504;28;20048;-57
2024/01/04 19:29:24;;;;;;;0.20;0.00;;;3.60;86.80;;;;;;21074995;28;20028;-57
2024/01/04 19:39:26;;;;;;;0.00;0.00;;;2.90;85.50;;;;;;21073128;28;20555;-57
2024/01/04 19:49:28;;;;;;;0.00;0.00;;;3.50;80.80;;;;;;21072598;28;20097;-57
2024/01/04 19:59:29;;;;;;;0.10;0.00;;;5.00;75.30;;;;;;21071188;28;20032;-57
2024/01/04 20:09:31;;;;;;;0.00;0.00;;;5.70;73.70;;;;;;21071712;28;20542;-58
2024/01/04 20:19:33;;;;;;;0.00;0.00;;;5.90;70.00;;;;;;21071398;28;20037;-58
2024/01/04 20:29:39;;;;;;;0.00;0.00;;;6.50;70.00;;;;;;21051707;28;20036;-58
2024/01/04 20:39:41;;;;;;;0.03;0.00;;;6.80;67.10;;;;;;21069674;28;20115;-58
2024/01/04 20:49:49;;;;;;;0.08;0.05;;;5.60;76.80;;;;;;21050905;28;20036;-53
2024/01/04 20:59:50;;;;;;;0.10;0.03;;;4.60;77.60;;;;;;21064990;28;20032;-57
2024/01/04 21:09:52;;;;;;;0.10;0.00;;;4.00;81.70;;;;;;21065198;28;20065;-56
2024/01/04 21:19:54;;;;;;;0.95;0.40;;;3.20;85.00;;;;;;21066942;28;20188;-57
2024/01/04 21:29:56;;;;;;;0.50;0.30;;;3.60;87.20;;;;;;21066437;28;20563;-57
2024/01/04 21:39:58;;;;;;;0.57;0.10;;;3.10;90.20;;;;;;21086696;28;20032;-55
2024/01/04 21:49:59;;;;;;;0.88;0.50;;;2.40;90.40;;;;;;21093864;28;20035;-57
2024/01/04 22:00:05;;;;;;;0.03;0.00;;;2.40;90.20;;;;;;21092863;28;20035;-58
2024/01/04 22:10:07;;;;;;;1.85;0.40;;;5.70;72.20;;;;;;21092707;28;20047;-56
2024/01/04 22:20:09;;;;;;;0.50;0.28;;;5.00;85.90;;;;;;21092342;28;20040;-58
2024/01/04 22:30:12;;;;;;;1.55;0.20;;;4.00;89.40;;;;;;21092161;28;20081;-56
2024/01/04 22:40:15;;;;;;;0.45;0.20;;;3.70;90.50;;;;;;21073494;28;20093;-57
2024/01/04 22:50:18;;;;;;;0.70;0.20;;;3.50;90.40;;;;;;21082950;28;20036;-57
2024/01/04 23:00:20;;;;;;;0.63;0.20;;;3.50;90.20;;;;;;21077527;28;20035;-57
2024/01/04 23:10:25;;;;;;;0.10;0.10;;;3.30;90.90;;;;;;21075809;28;20079;-56
2024/01/04 23:20:27;;;;;;;1.05;0.20;;;2.90;92.20;;;;;;21057583;28;20044;-57
2024/01/04 23:30:32;;;;;;;1.17;0.28;;;2.70;92.50;;;;;;21074959;28;20028;-57
2024/01/04 23:40:35;;;;;;;0.40;0.20;;;2.60;93.40;;;;;;21072844;28;20048;-57
2024/01/04 23:50:37;;;;;;;0.50;0.30;;;2.40;94.20;;;;;;21073789;28;20047;-56
